Time;durP1;ratioP1;P1;durP2;ratioP2;P2;SDS_P1;SDS_P2;PMS_P1;PMS_P2;Temp;Humidity;BMP_temperature;BMP_pressure;BME280_temperature;BME280_humidity;BME280_pressure;Samples;Min_cycle;Max_cycle;Signal;HPM_P1;HPM_P2
2024/02/20 00:00:41;;;;;;;45.75;9.18;;;9.90;99.90;;;10.08;100.00;102740.56;4977388;28;20043;-70
2024/02/20 00:03:09;;;;;;;45.58;9.40;;;9.80;99.90;;;10.19;100.00;102734.75;4977483;28;20063;-71
2024/02/20 00:05:39;;;;;;;43.00;9.95;;;9.90;99.90;;;10.20;100.00;102741.81;4977381;28;20404;-71
2024/02/20 00:08:08;;;;;;;37.45;9.60;;;9.90;99.90;;;10.17;100.00;102747.03;4976807;28;20501;-71
2024/02/20 00:10:36;;;;;;;41.53;8.65;;;9.90;99.90;;;10.01;100.00;102716.59;4975724;28;20464;-71
2024/02/20 00:13:05;;;;;;;43.03;8.88;;;9.90;99.90;;;10.24;100.00;102748.97;4976585;28;20049;-71
2024/02/20 00:15:34;;;;;;;46.40;9.57;;;9.90;99.90;;;10.21;100.00;102740.06;4976808;28;20042;-71
2024/02/20 00:18:03;;;;;;;40.42;9.43;;;9.90;99.90;;;10.16;100.00;102739.06;4976742;28;20125;-71
2024/02/20 00:20:32;;;;;;;39.03;8.73;;;9.90;99.90;;;10.11;100.00;102727.44;4991693;28;20057;-71
2024/02/20 00:23:01;;;;;;;34.38;8.27;;;9.80;99.90;;;10.23;100.00;102733.97;4976425;28;20078;-70
2024/02/20 00:25:29;;;;;;;43.92;9.10;;;9.90;99.90;;;10.25;100.00;102728.72;4976406;28;20049;-71
2024/02/20 00:27:58;;;;;;;36.70;8.60;;;9.90;99.90;;;10.27;100.00;102732.28;4975002;28;20093;-71
2024/02/20 00:30:26;;;;;;;37.42;9.23;;;10.00;99.90;;;10.27;100.00;102748.16;4976388;28;20050;-72
2024/02/20 00:32:54;;;;;;;42.42;8.40;;;10.00;99.90;;;10.30;100.00;102742.97;4975337;28;20145;-71
2024/02/20 00:35:23;;;;;;;35.38;8.38;;;10.10;99.90;;;10.38;100.00;102733.47;4976147;28;20050;-71
2024/02/20 00:37:52;;;;;;;39.58;9.45;;;10.10;99.90;;;10.39;100.00;102732.63;4975202;28;20054;-71
2024/02/20 00:40:22;;;;;;;36.25;8.40;;;10.20;99.90;;;10.32;100.00;102741.22;4976422;28;20097;-71
2024/02/20 00:42:51;;;;;;;34.42;8.50;;;10.10;99.90;;;10.26;100.00;102744.63;4976125;28;20409;-71
2024/02/20 00:45:19;;;;;;;42.70;10.00;;;10.10;99.90;;;10.26;100.00;102746.38;4976083;28;20046;-71
2024/02/20 00:47:47;;;;;;;33.40;8.18;;;10.00;99.90;;;10.28;100.00;102740.25;4991535;28;20051;-71
2024/02/20 00:50:17;;;;;;;33.50;7.95;;;10.00;99.90;;;10.31;100.00;102735.06;4976144;28;20098;-71
2024/02/20 00:52:45;;;;;;;32.92;8.68;;;10.10;99.90;;;10.36;100.00;102737.81;4974933;28;20424;-71
2024/02/20 00:55:14;;;;;;;33.72;9.02;;;10.20;99.90;;;10.38;100.00;102739.66;4975839;28;20081;-72
2024/02/20 00:57:44;;;;;;;43.47;10.05;;;10.20;99.90;;;10.33;100.00;102740.41;4976107;28;20050;-71
2024/02/20 01:00:14;;;;;;;44.83;9.60;;;10.10;99.90;;;10.49;100.00;102740.81;4976339;28;20050;-71
2024/02/20 01:02:44;;;;;;;35.83;8.73;;;10.20;99.90;;;10.35;100.00;102722.81;4975814;28;20053;-71
2024/02/20 01:05:12;;;;;;;30.45;8.20;;;10.20;99.90;;;10.33;100.00;102740.41;4975677;28;20062;-71
2024/02/20 01:07:41;;;;;;;37.00;8.55;;;10.10;99.90;;;10.32;100.00;102749.16;4976202;28;20039;-71
2024/02/20 01:10:10;;;;;;;36.20;8.25;;;10.10;99.90;;;10.40;100.00;102744.97;4975513;28;20101;-72
2024/02/20 01:12:39;;;;;;;37.63;8.90;;;10.20;99.90;;;10.39;100.00;102740.56;4975808;28;20442;-71
2024/02/20 01:15:10;;;;;;;41.83;9.13;;;10.20;99.90;;;10.30;100.00;102742.97;4975466;28;20464;-71
2024/02/20 01:17:39;;;;;;;28.00;8.15;;;10.10;99.90;;;10.31;100.00;102747.41;4976024;28;20046;-71
2024/02/20 01:20:09;;;;;;;39.28;9.27;;;10.10;99.90;;;10.33;100.00;102746.59;4975583;28;20085;-71
2024/02/20 01:22:39;;;;;;;34.05;8.40;;;10.10;99.90;;;10.27;100.00;102740.22;4975373;28;20042;-71
2024/02/20 01:25:08;;;;;;;42.63;9.05;;;10.10;99.90;;;10.29;100.00;102743.81;4975260;28;20497;-71
2024/02/20 01:27:36;;;;;;;34.65;7.97;;;10.10;99.90;;;10.25;100.00;102744.59;4975271;28;20131;-71
2024/02/20 01:30:07;;;;;;;32.88;7.85;;;10.00;99.90;;;10.29;100.00;102751.75;4975089;28;20043;-71
2024/02/20 01:32:37;;;;;;;34.20;8.65;;;10.00;99.90;;;10.40;100.00;102747.63;4975432;28;20078;-71
2024/02/20 01:35:07;;;;;;;43.00;8.02;;;10.10;99.90;;;10.09;100.00;102729.09;4975258;28;20509;-71
2024/02/20 01:37:36;;;;;;;35.88;8.13;;;10.00;99.90;;;10.28;100.00;102748.19;4974830;28;20130;-71
2024/02/20 01:40:07;;;;;;;35.28;7.90;;;10.00;99.90;;;10.33;100.00;102743.94;4974985;28;20113;-71
2024/02/20 01:42:38;;;;;;;38.13;9.07;;;10.10;99.90;;;10.31;100.00;102744.75;4975331;28;20051;-71
2024/02/20 01:45:08;;;;;;;34.00;7.97;;;10.10;99.90;;;10.33;100.00;102735.09;4974984;28;20039;-70
2024/02/20 01:47:39;;;;;;;33.50;8.40;;;10.10;99.90;;;10.34;100.00;102734.22;4975536;28;20053;-71
2024/02/20 01:50:09;;;;;;;32.58;8.75;;;10.10;99.90;;;10.44;100.00;102738.91;4975022;28;20101;-70
2024/02/20 01:52:38;;;;;;;35.95;9.48;;;10.20;99.90;;;10.43;100.00;102729.22;4974926;28;20054;-71
2024/02/20 01:55:07;;;;;;;47.03;9.50;;;10.20;99.90;;;10.29;100.00;102727.94;4975018;28;20081;-71
2024/02/20 01:57:36;;;;;;;35.90;9.07;;;10.20;99.90;;;10.46;100.00;102726.63;4975009;28;20047;-71
2024/02/20 02:00:06;;;;;;;38.47;9.07;;;10.20;99.90;;;10.55;100.00;102730.41;4973862;28;20058;-71
2024/02/20 02:02:45;;;;;;;30.88;8.55;;;10.30;99.90;;;10.61;100.00;102732.31;4974943;28;20150;-71
2024/02/20 02:05:13;;;;;;;45.00;9.57;;;10.30;99.90;;;10.54;100.00;102723.34;4989977;28;20505;-71
2024/02/20 02:07:42;;;;;;;37.72;8.75;;;10.30;99.90;;;10.59;100.00;102726.06;4974546;28;20043;-71
2024/02/20 02:10:11;;;;;;;35.05;9.00;;;10.30;99.90;;;10.59;100.00;102723.44;4974384;28;20125;-71
2024/02/20 02:12:39;;;;;;;41.00;9.57;;;10.30;99.90;;;10.70;100.00;102729.91;4974481;28;20122;-71
2024/02/20 02:15:09;;;;;;;38.70;8.98;;;10.40;99.90;;;10.61;100.00;102733.22;4974350;28;20042;-71
2024/02/20 02:17:38;;;;;;;38.47;9.07;;;10.30;99.90;;;10.49;100.00;102726.72;4973422;28;20047;-71
2024/02/20 02:20:09;;;;;;;42.80;9.45;;;10.30;99.90;;;10.51;100.00;102723.25;4974573;28;20050;-71
2024/02/20 02:22:37;;;;;;;30.45;8.27;;;10.30;99.90;;;10.52;100.00;102730.34;4974677;28;20133;-71
2024/02/20 02:25:08;;;;;;;31.52;7.88;;;10.20;99.90;;;10.53;100.00;102736.53;4974767;28;20123;-71
2024/02/20 02:27:38;;;;;;;34.08;8.32;;;10.30;99.90;;;10.49;100.00;102735.53;4974771;28;20500;-71
2024/02/20 02:30:09;;;;;;;38.10;9.23;;;10.20;99.90;;;10.50;100.00;102732.06;4974382;28;20149;-71
2024/02/20 02:32:39;;;;;;;40.83;8.77;;;10.20;99.90;;;10.64;100.00;102732.41;4974507;28;20053;-72
2024/02/20 02:35:10;;;;;;;33.50;9.20;;;10.30;99.90;;;10.73;100.00;102729.97;4973993;28;20061;-72
2024/02/20 02:37:38;;;;;;;37.63;9.63;;;10.40;99.90;;;10.70;100.00;102732.56;4974807;28;20051;-71
2024/02/20 02:40:10;;;;;;;39.40;9.55;;;10.40;99.90;;;10.60;100.00;102728.78;4974288;28;20500;-71
2024/02/20 02:42:40;;;;;;;39.55;9.10;;;10.30;99.90;;;10.65;100.00;102732.44;4974389;28;20138;-71
2024/02/20 02:45:09;;;;;;;35.45;9.63;;;10.30;99.90;;;10.60;100.00;102739.38;4974852;28;20062;-72
2024/02/20 02:47:37;;;;;;;34.83;8.80;;;10.30;99.90;;;10.51;100.00;102735.59;4972953;28;20051;-70
2024/02/20 02:50:07;;;;;;;41.15;9.40;;;10.30;99.90;;;10.49;100.00;102737.31;4973442;28;20038;-71
2024/02/20 02:52:35;;;;;;;38.28;9.95;;;10.20;99.90;;;10.56;100.00;102748.09;4973136;28;20421;-71
2024/02/20 02:55:05;;;;;;;38.67;9.55;;;10.20;99.90;;;10.49;100.00;102745.25;4974411;28;20051;-71
2024/02/20 02:57:33;;;;;;;35.35;9.52;;;10.20;99.90;;;10.43;100.00;102750.38;4973824;28;20051;-71
2024/02/20 03:00:08;;;;;;;42.47;9.85;;;10.20;99.90;;;10.49;100.00;102746.13;4974099;28;20130;-71
2024/02/20 03:02:37;;;;;;;43.85;10.00;;;10.20;99.90;;;10.49;100.00;102751.41;4974167;28;20047;-70
2024/02/20 03:05:06;;;;;;;32.10;9.38;;;10.20;99.90;;;10.45;100.00;102746.03;4973716;28;20054;-71
2024/02/20 03:07:35;;;;;;;46.03;9.73;;;10.20;99.90;;;10.39;100.00;102743.22;4973692;28;20419;-73
2024/02/20 03:10:05;;;;;;;34.78;8.50;;;10.10;99.90;;;10.45;100.00;102738.09;4973880;28;20141;-71
2024/02/20 03:12:33;;;;;;;37.53;9.48;;;10.10;99.90;;;10.52;100.00;102732.97;4974828;28;20228;-71
2024/02/20 03:15:05;;;;;;;36.75;9.75;;;10.20;99.90;;;10.52;100.00;102734.72;4973776;28;20378;-71
2024/02/20 03:17:34;;;;;;;45.58;8.63;;;10.30;99.90;;;10.44;100.00;102725.69;4974286;28;20120;-71
2024/02/20 03:20:14;;;;;;;40.20;10.18;;;10.20;99.90;;;10.45;100.00;102716.91;4973873;28;20507;-71
2024/02/20 03:22:43;;;;;;;40.13;9.55;;;10.30;99.90;;;10.53;100.00;102715.38;4988889;28;20047;-71
2024/02/20 03:25:14;;;;;;;38.53;10.40;;;10.30;99.90;;;10.54;100.00;102725.09;4973602;28;20047;-72
2024/02/20 03:27:45;;;;;;;42.72;9.30;;;10.30;99.90;;;10.56;100.00;102713.69;4973668;28;20065;-71
2024/02/20 03:30:15;;;;;;;34.83;9.77;;;10.30;99.90;;;10.74;100.00;102715.91;4974007;28;20047;-71
2024/02/20 03:32:43;;;;;;;40.08;9.73;;;10.50;99.90;;;10.71;100.00;102715.81;4973841;28;20464;-71
2024/02/20 03:35:20;;;;;;;38.20;9.40;;;10.50;99.90;;;10.80;100.00;102719.56;4973378;28;20082;-71
2024/02/20 03:37:49;;;;;;;37.13;9.45;;;10.60;99.90;;;10.61;100.00;102704.09;4973518;28;20042;-72
2024/02/20 03:40:19;;;;;;;40.47;9.20;;;10.50;99.90;;;10.74;100.00;102710.59;4973479;28;20082;-72
2024/02/20 03:42:47;;;;;;;44.78;9.32;;;10.50;99.90;;;10.66;100.00;102709.50;4973478;28;20070;-71
2024/02/20 03:45:17;;;;;;;43.85;9.32;;;10.50;99.90;;;10.68;100.00;102710.44;4973438;28;20121;-71
2024/02/20 03:47:45;;;;;;;35.30;8.80;;;10.50;99.90;;;10.78;100.00;102712.47;4973651;28;20052;-71
2024/02/20 03:50:14;;;;;;;37.25;8.88;;;10.50;99.90;;;10.84;99.75;102710.84;4973587;28;20133;-72
2024/02/20 03:52:43;;;;;;;32.75;9.40;;;10.60;99.90;;;10.60;99.58;102675.88;4973685;28;20035;-71
2024/02/20 03:55:11;;;;;;;39.30;9.38;;;10.60;99.90;;;10.88;99.76;102703.88;4973566;28;20555;-71
2024/02/20 03:57:42;;;;;;;34.17;8.52;;;10.60;99.90;;;10.73;99.29;102692.91;4973877;28;20046;-71
2024/02/20 04:00:12;;;;;;;35.40;8.35;;;10.60;99.90;;;10.85;99.55;102701.16;4973299;28;20500;-71
2024/02/20 04:02:43;;;;;;;36.30;8.40;;;10.60;99.90;;;10.93;99.28;102702.25;4975434;28;20132;-70
2024/02/20 04:05:12;;;;;;;37.22;8.88;;;10.70;99.90;;;10.83;98.86;102695.84;4976867;28;20122;-71
2024/02/20 04:07:46;;;;;;;37.13;9.05;;;10.70;99.90;;;10.99;99.36;102696.19;4977105;28;20046;-71
2024/02/20 04:10:16;;;;;;;34.90;8.95;;;10.70;99.90;;;10.88;99.08;102695.91;4976698;28;20527;-71
2024/02/20 04:12:44;;;;;;;39.70;9.50;;;10.70;99.90;;;10.87;99.30;102686.22;4976810;28;20043;-71
2024/02/20 04:15:14;;;;;;;44.55;10.10;;;10.70;99.90;;;10.98;99.42;102695.28;4976624;28;20554;-71
2024/02/20 04:17:44;;;;;;;33.75;9.18;;;10.70;99.90;;;11.04;99.25;102676.91;4976702;28;20373;-72
2024/02/20 04:20:13;;;;;;;33.10;8.77;;;10.70;99.90;;;11.03;98.55;102671.56;4977113;28;20050;-70
2024/02/20 04:22:41;;;;;;;33.55;8.23;;;10.80;99.90;;;11.13;98.56;102678.88;4977046;28;20057;-71
2024/02/20 04:25:10;;;;;;;38.83;9.75;;;10.90;99.90;;;11.13;98.06;102674.44;4976445;28;20070;-71
2024/02/20 04:27:39;;;;;;;40.72;8.85;;;10.90;99.90;;;10.87;97.54;102687.09;4976452;28;20407;-71
2024/02/20 04:30:20;;;;;;;35.00;8.45;;;10.80;99.90;;;10.93;97.96;102696.03;4976565;28;20517;-71
2024/02/20 04:32:50;;;;;;;29.65;7.68;;;10.70;99.90;;;10.96;97.66;102696.09;4976304;28;20049;-71
2024/02/20 04:35:18;;;;;;;33.60;9.63;;;10.70;99.90;;;10.97;97.31;102698.81;4976360;28;20424;-71
2024/02/20 04:37:47;;;;;;;34.67;9.10;;;10.70;99.90;;;10.92;96.98;102700.44;4976688;28;20134;-72
2024/02/20 04:40:18;;;;;;;40.92;9.38;;;10.70;99.90;;;10.79;97.19;102690.41;4976190;28;20051;-71
2024/02/20 04:42:46;;;;;;;31.67;8.45;;;10.60;99.90;;;10.87;97.14;102697.69;4976937;28;20042;-71
2024/02/20 04:45:15;;;;;;;39.65;9.88;;;10.60;99.90;;;10.84;97.29;102696.69;4991277;28;20586;-71
2024/02/20 04:47:43;;;;;;;33.97;8.48;;;10.60;99.90;;;10.91;97.21;102701.31;4976048;28;20400;-71
2024/02/20 04:50:13;;;;;;;37.45;8.85;;;10.70;99.90;;;10.97;96.57;102709.41;4975808;28;20416;-71
2024/02/20 04:52:42;;;;;;;34.15;8.35;;;10.70;99.90;;;10.96;96.52;102710.25;4975962;28;20089;-71
2024/02/20 04:55:10;;;;;;;32.13;8.88;;;10.70;99.90;;;11.02;96.68;102697.16;4976287;28;20035;-71
2024/02/20 04:57:38;;;;;;;31.27;8.65;;;10.80;99.90;;;11.05;96.19;102713.13;4976073;28;20047;-71
2024/02/20 05:00:10;;;;;;;30.88;8.48;;;10.80;99.90;;;10.97;96.45;102709.41;4976329;28;20052;-71
2024/02/20 05:02:40;;;;;;;36.40;9.25;;;10.70;99.90;;;11.05;96.26;102699.88;4975857;28;20051;-71
2024/02/20 05:05:09;;;;;;;30.87;8.93;;;10.80;99.90;;;11.16;96.18;102695.72;4975900;28;20051;-71
2024/02/20 05:07:39;;;;;;;38.38;8.75;;;10.90;99.90;;;11.19;95.80;102698.41;4975687;28;20294;-71
2024/02/20 05:10:09;;;;;;;35.42;8.40;;;11.00;99.90;;;11.28;95.63;102693.34;4975705;28;20443;-71
2024/02/20 05:12:38;;;;;;;38.78;9.27;;;11.00;99.90;;;11.32;95.07;102681.97;4974877;28;20404;-71
2024/02/20 05:15:08;;;;;;;39.70;9.48;;;11.10;99.90;;;11.25;94.62;102684.41;4975665;28;20053;-70
2024/02/20 05:17:36;;;;;;;33.67;9.13;;;11.00;99.90;;;11.27;94.74;102688.88;4975512;28;20117;-71
2024/02/20 05:20:07;;;;;;;32.30;9.52;;;11.00;99.90;;;11.22;94.85;102679.97;4975452;28;20051;-71
2024/02/20 05:22:37;;;;;;;33.08;9.00;;;11.00;99.90;;;11.23;94.84;102676.44;4975748;28;20424;-70
2024/02/20 05:25:07;;;;;;;31.13;9.38;;;11.00;99.90;;;10.72;95.03;102578.19;4990713;28;20428;-71
2024/02/20 05:27:36;;;;;;;29.70;8.45;;;11.00;99.90;;;11.29;95.06;102676.56;4975813;28;20066;-72
2024/02/20 05:30:06;;;;;;;31.02;9.38;;;11.00;99.90;;;11.29;94.78;102668.63;4975226;28;20487;-71
2024/02/20 05:32:34;;;;;;;34.30;9.07;;;11.10;99.90;;;11.28;94.57;102672.16;4975441;28;20053;-71
2024/02/20 05:35:05;;;;;;;36.53;9.70;;;11.00;99.90;;;11.33;94.79;102704.91;4975135;28;20163;-71
2024/02/20 05:37:34;;;;;;;38.85;9.73;;;11.10;99.90;;;11.30;94.93;102685.41;4973926;28;20483;-71
2024/02/20 05:40:10;;;;;;;27.70;8.90;;;11.00;99.90;;;11.29;94.86;102687.16;4975081;28;20071;-71
2024/02/20 05:42:38;;;;;;;28.85;8.55;;;11.00;99.90;;;11.28;95.32;102685.41;4975086;28;20042;-71
2024/02/20 05:45:08;;;;;;;23.33;8.40;;;11.00;99.90;;;11.29;95.09;102692.47;4975200;28;20485;-71
2024/02/20 05:47:37;;;;;;;35.77;9.27;;;11.00;99.90;;;11.21;95.46;102678.16;4974988;28;20053;-71
2024/02/20 05:50:07;;;;;;;35.67;10.00;;;11.00;99.90;;;11.25;95.52;102687.06;4975395;28;20456;-71
2024/02/20 05:52:35;;;;;;;35.45;10.32;;;10.90;99.90;;;11.24;95.66;102693.22;4974791;28;20097;-71
2024/02/20 05:55:07;;;;;;;31.88;9.43;;;10.90;99.90;;;11.17;95.62;102681.59;4975306;28;20089;-71
2024/02/20 05:57:35;;;;;;;29.23;9.00;;;10.90;99.90;;;11.16;95.64;102695.72;4973491;28;20085;-71
2024/02/20 06:00:05;;;;;;;32.90;9.27;;;10.90;99.90;;;11.13;95.86;102692.13;4973885;28;20049;-71
2024/02/20 06:02:33;;;;;;;31.90;9.02;;;10.80;99.90;;;11.09;95.96;102688.47;4974600;28;20054;-71
2024/02/20 06:05:02;;;;;;;32.97;9.43;;;10.80;99.90;;;11.05;96.11;102694.59;4973597;28;20054;-71
2024/02/20 06:07:32;;;;;;;38.03;10.00;;;10.80;99.90;;;11.05;96.07;102691.94;4974622;28;20054;-71
2024/02/20 06:10:00;;;;;;;30.38;9.05;;;10.70;99.90;;;11.01;96.34;102690.06;4974548;28;20050;-71
2024/02/20 06:12:31;;;;;;;27.20;8.73;;;10.70;99.90;;;10.97;96.32;102689.97;4974696;28;20056;-71
2024/02/20 06:14:59;;;;;;;27.77;9.50;;;10.60;99.90;;;10.95;96.54;102689.03;4974720;28;20408;-71
2024/02/20 06:17:32;;;;;;;34.83;9.90;;;10.60;99.90;;;10.94;96.53;102687.25;4974693;28;20399;-71
2024/02/20 06:20:01;;;;;;;29.73;9.20;;;10.60;99.90;;;10.91;96.72;102682.78;4974227;28;20070;-71
2024/02/20 06:22:30;;;;;;;35.67;8.90;;;10.60;99.90;;;10.92;97.04;102681.91;4974535;28;20043;-71
2024/02/20 06:24:58;;;;;;;34.58;9.57;;;10.60;99.90;;;10.93;97.10;102677.50;4973562;28;20051;-71
2024/02/20 06:27:26;;;;;;;31.02;8.40;;;10.60;99.90;;;10.71;97.22;102639.03;4974798;28;20057;-71
2024/02/20 06:29:56;;;;;;;31.25;9.60;;;10.60;99.90;;;10.92;97.41;102678.38;4974122;28;20128;-71
2024/02/20 06:32:25;;;;;;;35.28;9.35;;;10.60;99.90;;;10.94;97.56;102668.72;4973127;28;20158;-71
2024/02/20 06:34:53;;;;;;;38.22;9.95;;;10.70;99.90;;;10.82;97.54;102637.53;4974037;28;20466;-71
2024/02/20 06:37:22;;;;;;;36.90;8.98;;;10.60;99.90;;;10.95;97.46;102654.59;4974403;28;20055;-71
2024/02/20 06:39:50;;;;;;;35.00;9.75;;;10.60;99.90;;;10.94;97.55;102656.34;4974001;28;20043;-72
2024/02/20 06:42:22;;;;;;;28.92;9.35;;;10.60;99.90;;;10.95;97.62;102671.41;4974320;28;20050;-71
2024/02/20 06:44:50;;;;;;;31.45;9.38;;;10.60;99.90;;;10.97;97.60;102667.03;4973969;28;20051;-72
2024/02/20 06:47:20;;;;;;;32.95;9.63;;;10.70;99.90;;;10.94;97.76;102663.44;4974126;28;20054;-71
2024/02/20 06:49:48;;;;;;;36.22;10.25;;;10.60;99.90;;;10.95;97.72;102660.81;4989111;28;20047;-71
2024/02/20 06:52:17;;;;;;;32.80;8.82;;;10.70;99.90;;;10.95;97.81;102667.84;4974230;28;20054;-71
2024/02/20 06:54:45;;;;;;;38.88;9.73;;;10.60;99.90;;;10.90;98.02;102660.69;4974411;28;20047;-71
2024/02/20 06:57:14;;;;;;;35.20;10.07;;;10.60;99.90;;;10.87;97.73;102667.66;4974048;28;20086;-71
2024/02/20 06:59:42;;;;;;;35.58;9.25;;;10.60;99.90;;;10.85;97.98;102669.38;4974115;28;20093;-71
2024/02/20 07:02:10;;;;;;;36.70;9.82;;;10.60;99.90;;;10.81;98.13;102657.84;4973745;28;20050;-71
2024/02/20 07:04:41;;;;;;;39.30;9.90;;;10.50;99.90;;;10.82;98.18;102661.34;4972591;28;20075;-71
2024/02/20 07:07:10;;;;;;;42.65;10.40;;;10.50;99.90;;;10.84;98.43;102664.94;4973981;28;20053;-71
2024/02/20 07:09:38;;;;;;;34.25;8.85;;;10.50;99.90;;;10.81;98.42;102654.28;4973734;28;20137;-72
2024/02/20 07:12:09;;;;;;;30.75;9.13;;;10.50;99.90;;;10.87;98.79;102655.34;4973614;28;20053;-71
2024/02/20 07:14:38;;;;;;;36.83;9.52;;;10.60;99.90;;;10.88;98.90;102661.50;4973740;28;20093;-72
2024/02/20 07:17:06;;;;;;;31.60;9.73;;;10.60;99.90;;;10.87;99.09;102667.66;4973760;28;20057;-71
2024/02/20 07:19:35;;;;;;;31.90;10.52;;;10.60;99.90;;;10.80;99.19;102657.81;4973596;28;20050;-71
2024/02/20 07:22:05;;;;;;;39.88;9.27;;;10.50;99.90;;;10.59;99.27;102617.59;4988924;28;20050;-71
2024/02/20 07:24:33;;;;;;;32.80;9.85;;;10.50;99.90;;;10.81;99.68;102662.22;4973608;28;20051;-72
2024/02/20 07:27:01;;;;;;;37.15;9.88;;;10.50;99.90;;;10.71;99.74;102649.63;4973470;28;20043;-71
2024/02/20 07:29:30;;;;;;;40.05;9.98;;;10.50;99.90;;;10.80;99.98;102652.53;4973780;28;20098;-71
2024/02/20 07:31:58;;;;;;;39.80;10.15;;;10.50;99.90;;;10.74;99.75;102655.03;4973973;28;20501;-72
2024/02/20 07:34:27;;;;;;;37.40;9.63;;;10.50;99.90;;;10.73;99.69;102650.56;4988562;28;20437;-71
2024/02/20 07:36:55;;;;;;;38.75;9.85;;;10.50;99.90;;;10.72;99.90;102657.59;4974400;28;20497;-71
2024/02/20 07:39:25;;;;;;;40.67;9.35;;;10.50;99.90;;;10.77;100.00;102660.38;4977518;28;20046;-71
2024/02/20 07:41:53;;;;;;;28.92;7.97;;;10.50;99.90;;;10.74;100.00;102665.59;4977499;28;20046;-71
2024/02/20 07:44:22;;;;;;;33.75;8.73;;;10.50;99.90;;;10.76;100.00;102666.53;4977383;28;20039;-71
2024/02/20 07:46:51;;;;;;;34.72;9.32;;;10.50;99.90;;;10.84;100.00;102673.78;4977017;28;20121;-71
2024/02/20 07:49:19;;;;;;;34.03;8.85;;;10.50;99.90;;;10.79;100.00;102669.25;4976943;28;20050;-72
2024/02/20 07:51:48;;;;;;;36.97;8.73;;;10.50;99.90;;;10.79;100.00;102664.84;4977725;28;20055;-71
2024/02/20 07:54:17;;;;;;;33.10;8.88;;;10.60;99.90;;;10.82;100.00;102669.28;4976996;28;20043;-71
2024/02/20 07:56:47;;;;;;;37.35;8.85;;;10.50;99.90;;;10.93;100.00;102670.47;4977262;28;20054;-72
2024/02/20 07:59:16;;;;;;;35.83;9.13;;;10.60;99.90;;;10.97;99.95;102668.78;4977074;28;20050;-71
2024/02/20 08:01:51;;;;;;;35.47;9.25;;;10.60;99.90;;;10.94;99.73;102676.66;4977168;28;20507;-70
2024/02/20 08:04:21;;;;;;;30.30;7.38;;;10.60;99.90;;;10.90;99.95;102670.38;4977442;28;20062;-71
2024/02/20 08:06:50;;;;;;;32.10;9.05;;;10.60;99.90;;;10.92;99.72;102668.66;4975966;28;20141;-72
2024/02/20 08:09:18;;;;;;;36.30;8.95;;;10.60;99.90;;;10.92;99.82;102673.94;4976724;28;20117;-71
2024/02/20 08:11:49;;;;;;;32.58;8.65;;;10.60;99.90;;;10.96;99.75;102678.47;4976673;28;20070;-72
2024/02/20 08:14:19;;;;;;;32.30;8.73;;;10.70;99.90;;;10.91;99.72;102674.84;4976641;28;20042;-71
2024/02/20 08:16:49;;;;;;;27.70;8.90;;;10.70;99.90;;;10.95;99.94;102667.84;4976541;28;20504;-71
2024/02/20 08:19:18;;;;;;;33.42;8.27;;;10.70;99.90;;;10.93;100.00;102678.41;4976798;28;20078;-72
2024/02/20 08:21:46;;;;;;;32.45;8.02;;;10.70;99.90;;;10.96;100.00;102664.31;4976392;28;20441;-71
2024/02/20 08:24:15;;;;;;;34.75;9.05;;;10.70;99.90;;;10.96;100.00;102667.88;4976365;28;20046;-71
2024/02/20 08:26:43;;;;;;;29.50;8.48;;;10.70;99.90;;;10.92;100.00;102668.66;4976652;28;20093;-71
2024/02/20 08:29:13;;;;;;;38.33;9.40;;;10.60;99.90;;;10.93;100.00;102672.22;4976541;28;20093;-71
2024/02/20 08:31:42;;;;;;;33.35;9.52;;;10.70;99.90;;;10.93;100.00;102667.81;4976208;28;20042;-71
2024/02/20 08:34:10;;;;;;;35.50;9.38;;;10.60;99.90;;;10.97;100.00;102667.03;4975048;28;20070;-71
2024/02/20 08:36:39;;;;;;;36.15;8.85;;;10.70;99.90;;;11.00;100.00;102661.78;4976330;28;20468;-71
2024/02/20 08:39:08;;;;;;;36.28;9.25;;;10.70;99.90;;;11.01;100.00;102665.34;4976274;28;20050;-72
2024/02/20 08:41:36;;;;;;;32.65;9.05;;;10.70;99.90;;;11.11;100.00;102675.28;4975161;28;20047;-71
2024/02/20 08:44:07;;;;;;;33.95;8.52;;;10.80;99.90;;;11.09;100.00;102672.56;4976049;28;20533;-71
2024/02/20 08:46:37;;;;;;;32.97;9.35;;;10.80;99.90;;;11.12;100.00;102664.72;4976371;28;20054;-71
2024/02/20 08:49:05;;;;;;;41.87;9.90;;;10.80;99.90;;;11.12;100.00;102663.81;4975815;28;20477;-72
2024/02/20 08:51:34;;;;;;;31.55;9.30;;;10.80;99.90;;;11.13;100.00;102652.38;4975205;28;20291;-72
2024/02/20 08:54:03;;;;;;;37.38;9.15;;;10.80;99.90;;;11.13;100.00;102653.25;4975762;28;20122;-71
2024/02/20 08:56:31;;;;;;;33.30;8.90;;;10.90;99.90;;;10.58;100.00;102550.56;4974889;28;20056;-71
2024/02/20 08:59:00;;;;;;;40.15;10.27;;;11.00;99.90;;;11.17;100.00;102654.25;4974436;28;20059;-71
2024/02/20 09:01:28;;;;;;;36.05;9.52;;;10.90;99.90;;;11.18;100.00;102656.91;4976284;28;20051;-71
2024/02/20 09:03:59;;;;;;;39.10;9.63;;;10.90;99.90;;;11.14;100.00;102651.50;4975255;28;20503;-72
2024/02/20 09:06:28;;;;;;;30.85;8.85;;;10.90;99.90;;;11.16;100.00;102652.44;4975336;28;20043;-71
2024/02/20 09:08:56;;;;;;;42.70;10.13;;;10.90;99.90;;;11.20;100.00;102652.53;4975897;28;20460;-71
2024/02/20 09:11:25;;;;;;;36.58;9.65;;;10.90;99.90;;;11.19;100.00;102650.75;4990967;28;20078;-71
2024/02/20 09:13:53;;;;;;;34.60;10.02;;;10.90;99.90;;;11.21;100.00;102653.41;4975525;28;20043;-71
2024/02/20 09:16:22;;;;;;;46.90;10.10;;;11.00;99.90;;;11.21;100.00;102654.31;4975476;28;20043;-72
2024/02/20 09:18:50;;;;;;;40.50;10.38;;;11.00;99.90;;;11.24;100.00;102649.09;4974179;28;20121;-71
2024/02/20 09:21:20;;;;;;;41.05;10.23;;;11.00;99.90;;;11.38;100.00;102647.63;4974578;28;20392;-72
2024/02/20 09:23:48;;;;;;;36.67;9.23;;;11.10;99.90;;;11.33;100.00;102645.72;4975571;28;20447;-71
2024/02/20 09:26:20;;;;;;;41.60;10.27;;;11.10;99.90;;;11.41;100.00;102638.84;4975510;28;20057;-71
2024/02/20 09:28:48;;;;;;;35.50;9.68;;;11.10;99.90;;;11.44;100.00;102645.09;4973576;28;20405;-73
2024/02/20 09:31:17;;;;;;;38.28;9.55;;;11.20;99.90;;;11.40;100.00;102637.06;4973514;28;20074;-70
2024/02/20 09:33:45;;;;;;;36.45;9.50;;;11.20;99.90;;;11.43;100.00;102640.66;4973856;28;20035;-71
2024/02/20 09:36:14;;;;;;;42.58;10.43;;;11.20;99.90;;;11.29;100.00;102607.69;4975227;28;20074;-71
2024/02/20 09:38:44;;;;;;;38.45;9.15;;;11.20;99.90;;;11.42;100.00;102632.69;4975058;28;20101;-72
2024/02/20 09:41:23;;;;;;;36.75;8.77;;;11.20;99.90;;;11.48;100.00;102633.69;4974064;28;20657;-71
2024/02/20 09:43:51;;;;;;;35.13;9.82;;;11.20;99.90;;;11.53;100.00;102624.09;4973247;28;20134;-72
2024/02/20 09:46:21;;;;;;;41.03;9.90;;;11.30;99.90;;;11.56;100.00;102628.53;4973188;28;20117;-72
2024/02/20 09:48:50;;;;;;;35.55;9.68;;;11.30;99.90;;;11.58;100.00;102635.66;4989926;28;20062;-71
2024/02/20 09:51:20;;;;;;;36.42;9.90;;;11.30;99.90;;;11.64;100.00;102627.84;4975158;28;20047;-71
2024/02/20 09:53:54;;;;;;;45.65;10.60;;;11.40;99.90;;;11.61;100.00;102627.75;4975045;28;20466;-73
2024/02/20 09:56:24;;;;;;;39.42;10.27;;;11.40;99.90;;;11.57;100.00;102615.34;4972905;28;20559;-73
2024/02/20 09:58:53;;;;;;;40.28;10.18;;;11.40;99.90;;;11.69;100.00;102620.91;4973754;28;20034;-71
2024/02/20 10:01:23;;;;;;;35.25;9.40;;;11.40;99.90;;;11.71;99.45;102619.16;4974727;28;20043;-71
2024/02/20 10:03:55;;;;;;;34.97;9.48;;;11.50;99.90;;;11.82;99.50;102621.13;4973784;28;20049;-71
2024/02/20 10:06:25;;;;;;;45.25;10.27;;;11.50;99.90;;;11.84;99.35;102622.06;4973122;28;20504;-72
2024/02/20 10:08:56;;;;;;;30.45;8.95;;;11.60;99.90;;;11.86;99.26;102617.69;4972778;28;20504;-71
2024/02/20 10:11:24;;;;;;;42.72;9.48;;;11.60;99.90;;;11.94;99.58;102624.03;4973367;28;20540;-71